Departure
University Airport
Davis, US
cloud Weather
- Wind
- 180° / 6 kt
- Visibility
- 10 SM
- Ceiling
- CLR
- Temp / Dew
- 16°C / 12°C
- Altimeter
- 29.99 inHg
Obs: 2026-09-03T08:15:00.000Z
Raw METAR
METAR KEDU 030815Z AUTO 18006KT 10SM 16/12 A2999 RMK AO1
route Route
Departure
Davis, US
Obs: 2026-09-03T08:15:00.000Z
METAR KEDU 030815Z AUTO 18006KT 10SM 16/12 A2999 RMK AO1
Arrival
Sacramento, US
Obs: 2026-09-03T07:53:00.000Z
METAR KSAC 030753Z AUTO 18004KT 10SM CLR 16/13 A2999 RMK AO2 SLP154 T01560128 402560150 TAF KSAC 030520Z 0306/0406 20006KT P6SM OVC200 FM031900 22008G20KT P6SM VCSH BKN050 FM032300 23010KT P6SM BKN035 FM040400 21008KT P6SM BKN050
| Date | Flight | Aircraft | Takeoff | Landing | Duration | Arr Δ |
|---|---|---|---|---|---|---|
| 2026-07-12 | N738YC | A9EAEC | Jul 12, 19:45 UTC | Jul 12, 20:25 UTC | 40m | - |
| 2026-07-09 | CXK1002 | AAAE5E | Jul 9, 03:15 UTC | Jul 9, 03:25 UTC | 10m | - |
| 2026-07-02 | N737MF | A9E625 | Jul 2, 18:55 UTC | Jul 2, 19:05 UTC | 10m | - |
| 2026-07-01 | N738YC | A9EAEC | Jul 1, 23:50 UTC | Jul 2, 00:05 UTC | 15m | - |
| 2026-06-27 | N67405 | A8ED0A | Jun 27, 14:35 UTC | Jun 27, 16:14 UTC | 1h 40m | - |
| 2026-06-24 | N133VM | A0883D | Jun 24, 19:49 UTC | Jun 24, 19:59 UTC | 10m | - |
| 2026-06-24 | N333NC | A3A223 | Jun 24, 02:54 UTC | Jun 24, 03:04 UTC | 10m | - |
| 2026-06-20 | CXK1032 | A34DE0 | Jun 20, 22:00 UTC | Jun 20, 22:14 UTC | 15m | - |
| 2026-06-17 | N739GY | A9ED27 | Jun 17, 15:30 UTC | Jun 17, 15:46 UTC | 15m | - |
| 2026-06-05 | CXK1110 | A3431A | Jun 5, 01:35 UTC | Jun 5, 01:45 UTC | 10m | - |
| 2026-06-04 | N20CA | A18FDD | Jun 4, 21:30 UTC | Jun 4, 21:40 UTC | 10m | - |
| 2026-06-04 | N1920F | A171F7 | Jun 4, 00:45 UTC | Jun 4, 01:00 UTC | 15m | - |
| 2026-06-03 | N256VA | A26FA4 | Jun 3, 17:20 UTC | Jun 3, 17:30 UTC | 10m | - |
| 2026-06-02 | CXK490 | A89AB9 | Jun 2, 23:00 UTC | Jun 2, 23:25 UTC | 25m | - |
| 2026-05-31 | N4TT | A4A9AA | May 31, 23:30 UTC | May 31, 23:40 UTC | 10m | - |
| 2026-05-30 | N7442S | AA0415 | May 30, 20:10 UTC | May 30, 20:20 UTC | 10m | - |
| 2026-05-27 | CXK1108 | A23A75 | May 27, 19:35 UTC | May 27, 19:45 UTC | 10m | - |
| 2026-05-26 | N620J | A81705 | May 26, 20:45 UTC | May 26, 21:00 UTC | 15m | - |
| 2026-05-13 | N44996 | A56FBE | May 13, 22:45 UTC | May 13, 22:55 UTC | 10m | - |
| 2026-05-13 | N67405 | A8ED0A | May 13, 20:50 UTC | May 13, 22:00 UTC | 1h 10m | - |
| 2026-05-11 | N67807 | A8FBE8 | May 11, 17:35 UTC | May 11, 17:50 UTC | 15m | - |
| 2026-05-07 | N4755P | A5D6C2 | May 7, 20:55 UTC | May 7, 21:10 UTC | 15m | - |
| 2026-05-04 | N739GY | A9ED27 | May 4, 18:35 UTC | May 4, 18:45 UTC | 10m | - |
| 2026-04-29 | N67405 | A8ED0A | Apr 29, 01:25 UTC | Apr 29, 01:40 UTC | 15m | - |
| 2026-04-26 | N738YC | A9EAEC | Apr 26, 19:05 UTC | Apr 26, 19:15 UTC | 10m | - |
| 2026-04-26 | N739GY | A9ED27 | Apr 26, 18:15 UTC | Apr 26, 18:25 UTC | 10m | - |
| 2026-04-23 | N67807 | A8FBE8 | Apr 23, 01:40 UTC | Apr 23, 01:55 UTC | 15m | - |
| 2026-04-20 | N739GY | A9ED27 | Apr 20, 20:25 UTC | Apr 20, 20:35 UTC | 10m | - |
| 2026-04-18 | N2182H | A1D9E0 | Apr 18, 15:40 UTC | Apr 18, 17:40 UTC | 2h 0m | - |
| 2026-04-15 | N63352 | A84C03 | Apr 15, 21:05 UTC | Apr 15, 22:10 UTC | 1h 5m | - |